createdAt,value
2022-11-29T00:03:07.982Z,39.95
2022-11-29T00:07:00.609Z,40.63
2022-11-29T00:10:53.676Z,46.65
2022-11-29T00:14:46.626Z,39.38
2022-11-29T00:18:39.497Z,45.72
2022-11-29T00:22:32.057Z,42.13
2022-11-29T00:26:24.796Z,38.67
2022-11-29T00:30:18.385Z,43.97
2022-11-29T00:34:12.632Z,36.63
2022-11-29T00:38:05.176Z,34.90
2022-11-29T00:41:57.654Z,38.70
2022-11-29T00:45:50.344Z,39.13
2022-11-29T00:49:42.973Z,43.38
2022-11-29T00:53:36.366Z,37.88
2022-11-29T00:57:29.006Z,45.25
2022-11-29T01:01:21.820Z,39.25
2022-11-29T01:05:14.494Z,40.15
2022-11-29T01:09:07.085Z,38.75
2022-11-29T01:12:59.612Z,38.63
2022-11-29T01:16:52.289Z,38.42
2022-11-29T01:20:44.712Z,37.75
2022-11-29T01:24:37.270Z,36.08
2022-11-29T01:28:30.115Z,33.15
2022-11-29T01:32:23.334Z,36.95
2022-11-29T01:36:15.985Z,38.90
2022-11-29T01:40:08.746Z,40.22
2022-11-29T01:44:28.053Z,35.53
2022-11-29T01:48:24.380Z,32.92
2022-11-29T01:52:24.735Z,33.72
2022-11-29T01:56:17.423Z,34.00
2022-11-29T02:00:13.337Z,36.92
2022-11-29T02:04:06.495Z,33.67
2022-11-29T02:08:00.160Z,33.33
2022-11-29T02:12:22.576Z,35.28
2022-11-29T02:16:45.716Z,32.42
2022-11-29T02:21:18.260Z,32.28
2022-11-29T02:25:58.884Z,29.58
2022-11-29T02:30:16.321Z,26.13
2022-11-29T02:34:17.803Z,28.95
2022-11-29T02:38:41.528Z,28.25
2022-11-29T02:43:04.440Z,31.23
2022-11-29T02:47:08.029Z,27.77
2022-11-29T02:51:13.652Z,27.48
2022-11-29T02:55:44.247Z,26.83
2022-11-29T02:59:55.088Z,24.98
2022-11-29T03:03:52.376Z,26.23
2022-11-29T03:07:49.515Z,29.27
2022-11-29T03:12:01.479Z,24.90
2022-11-29T03:16:07.932Z,27.77
2022-11-29T03:20:21.712Z,23.52
2022-11-29T03:24:22.944Z,29.48
2022-11-29T03:28:23.907Z,24.80
2022-11-29T03:32:27.274Z,22.20
2022-11-29T03:36:37.262Z,23.92
2022-11-29T03:40:48.144Z,22.98
2022-11-29T03:44:50.582Z,22.98
2022-11-29T03:48:50.045Z,21.40
2022-11-29T03:52:53.840Z,19.88
2022-11-29T03:56:46.732Z,21.52
2022-11-29T04:01:18.797Z,20.10
2022-11-29T04:05:17.929Z,19.88
2022-11-29T04:09:24.404Z,22.08
2022-11-29T04:14:07.806Z,20.15
2022-11-29T04:18:26.034Z,19.25
2022-11-29T04:22:54.194Z,18.35
2022-11-29T04:26:52.303Z,16.75
2022-11-29T04:31:25.397Z,19.30
2022-11-29T04:35:33.137Z,16.45
2022-11-29T04:39:37.704Z,18.77
2022-11-29T04:44:17.861Z,18.70
2022-11-29T04:48:33.014Z,18.25
2022-11-29T04:52:28.297Z,19.45
2022-11-29T04:56:36.745Z,20.35
2022-11-29T05:00:35.297Z,18.35
2022-11-29T05:04:36.802Z,18.10
2022-11-29T05:08:41.281Z,17.77
2022-11-29T05:12:52.433Z,17.70
2022-11-29T05:16:48.320Z,17.02
2022-11-29T05:20:53.960Z,19.90
2022-11-29T05:24:55.679Z,18.58
2022-11-29T05:29:05.409Z,18.45
2022-11-29T05:33:24.198Z,20.65
2022-11-29T05:37:33.812Z,17.98
2022-11-29T05:41:56.901Z,18.55
2022-11-29T05:45:57.363Z,18.75
2022-11-29T05:50:16.350Z,18.60
2022-11-29T05:54:41.032Z,19.73
2022-11-29T05:58:45.710Z,22.77
2022-11-29T06:03:03.807Z,19.30
2022-11-29T06:07:18.095Z,21.65
2022-11-29T06:11:33.132Z,21.63
2022-11-29T06:15:53.340Z,22.58
2022-11-29T06:20:26.559Z,22.42
2022-11-29T06:24:25.870Z,23.50
2022-11-29T06:28:30.855Z,23.42
2022-11-29T06:32:37.703Z,23.52
2022-11-29T06:36:43.188Z,24.43
2022-11-29T06:40:35.911Z,21.20
2022-11-29T06:44:28.857Z,21.45
2022-11-29T06:48:27.761Z,21.58
2022-11-29T06:52:43.970Z,24.45
2022-11-29T06:57:08.497Z,21.98
2022-11-29T07:01:15.195Z,24.17
2022-11-29T07:05:22.778Z,22.03
2022-11-29T07:09:20.400Z,23.50
2022-11-29T07:13:14.016Z,20.70
2022-11-29T07:17:12.434Z,20.58
2022-11-29T07:21:16.011Z,19.65
2022-11-29T07:25:28.817Z,17.23
2022-11-29T07:29:46.985Z,17.50
2022-11-29T07:33:48.490Z,17.92
2022-11-29T07:37:57.867Z,17.02
2022-11-29T07:41:59.458Z,21.23
2022-11-29T07:45:52.187Z,18.95
2022-11-29T07:49:44.965Z,22.00
2022-11-29T07:53:42.437Z,22.40
2022-11-29T07:57:36.817Z,27.23
2022-11-29T08:01:29.599Z,25.02
2022-11-29T08:05:23.389Z,23.63
2022-11-29T08:09:16.132Z,19.15
2022-11-29T08:13:09.433Z,23.83
2022-11-29T08:17:01.821Z,27.20
2022-11-29T08:20:54.430Z,26.30
2022-11-29T08:24:47.581Z,30.27
2022-11-29T08:28:40.525Z,27.50
2022-11-29T08:32:34.399Z,27.48
2022-11-29T08:36:27.073Z,29.48
2022-11-29T08:40:19.885Z,28.35
2022-11-29T08:44:12.453Z,30.50
2022-11-29T08:48:05.659Z,27.23
2022-11-29T08:52:16.905Z,28.40
2022-11-29T08:56:59.751Z,29.17
2022-11-29T09:00:24.682Z,26.90
2022-11-29T09:04:17.849Z,27.98
2022-11-29T09:08:10.455Z,25.23
2022-11-29T09:12:03.271Z,29.02
2022-11-29T09:15:55.782Z,27.02
2022-11-29T09:19:48.318Z,23.90
2022-11-29T09:23:43.186Z,27.05
2022-11-29T09:27:35.618Z,24.30
2022-11-29T09:31:29.965Z,25.48
2022-11-29T09:35:22.421Z,27.60
2022-11-29T09:39:14.970Z,26.77
2022-11-29T09:43:20.328Z,24.73
2022-11-29T09:47:50.533Z,24.52
2022-11-29T09:52:16.129Z,23.17
2022-11-29T09:56:23.707Z,27.55
2022-11-29T10:00:20.312Z,25.95
2022-11-29T10:04:18.570Z,25.02
2022-11-29T10:08:33.998Z,24.77
2022-11-29T10:12:52.862Z,23.77
2022-11-29T10:16:57.618Z,24.40
2022-11-29T10:20:53.953Z,25.52
2022-11-29T10:24:51.932Z,24.55
2022-11-29T10:28:47.776Z,24.25
2022-11-29T10:32:41.064Z,24.95
2022-11-29T10:36:41.043Z,24.40
2022-11-29T10:40:36.422Z,28.48
2022-11-29T10:44:32.104Z,27.55
2022-11-29T10:48:31.978Z,24.17
2022-11-29T10:52:24.841Z,22.10
2022-11-29T10:56:24.303Z,23.35
2022-11-29T11:00:17.185Z,19.58
2022-11-29T11:04:17.211Z,21.52
2022-11-29T11:08:18.089Z,18.90
2022-11-29T11:12:17.139Z,18.75
2022-11-29T11:16:20.741Z,22.27
2022-11-29T11:20:22.861Z,17.55
2022-11-29T11:24:25.138Z,20.38
2022-11-29T11:28:27.344Z,15.27
2022-11-29T11:32:20.382Z,18.13
2022-11-29T11:36:24.085Z,19.02
2022-11-29T11:40:29.447Z,15.25
2022-11-29T11:44:49.968Z,17.75
2022-11-29T11:48:42.740Z,15.32
2022-11-29T11:52:50.650Z,15.38
2022-11-29T11:56:43.673Z,18.67
2022-11-29T12:01:09.405Z,17.42
2022-11-29T12:05:05.119Z,18.20
2022-11-29T12:09:06.568Z,16.10
2022-11-29T12:13:00.974Z,14.73
2022-11-29T12:17:01.923Z,17.55
2022-11-29T12:20:58.589Z,19.92
2022-11-29T12:24:59.346Z,17.92
2022-11-29T12:28:52.936Z,19.02
2022-11-29T12:33:04.653Z,18.17
2022-11-29T12:37:20.648Z,16.92
2022-11-29T12:41:13.591Z,15.85
2022-11-29T12:45:30.268Z,17.85
2022-11-29T12:49:22.915Z,19.45
2022-11-29T12:53:40.016Z,16.30
2022-11-29T12:58:00.694Z,15.90
2022-11-29T13:02:23.646Z,15.18
2022-11-29T13:06:40.901Z,13.68
2022-11-29T13:10:55.215Z,15.77
2022-11-29T13:15:09.731Z,16.60
2022-11-29T13:19:29.858Z,18.75
2022-11-29T13:23:45.707Z,23.13
2022-11-29T13:28:02.038Z,18.58
2022-11-29T13:31:54.998Z,17.58
2022-11-29T13:35:56.581Z,14.68
2022-11-29T13:39:49.283Z,17.00
2022-11-29T13:43:45.549Z,18.50
2022-11-29T13:47:56.001Z,17.35
2022-11-29T13:51:49.581Z,19.55
2022-11-29T13:56:25.128Z,19.35
2022-11-29T14:00:44.788Z,17.70
2022-11-29T14:04:39.621Z,18.63
2022-11-29T14:08:55.140Z,21.38
2022-11-29T14:12:56.885Z,19.95
2022-11-29T14:16:52.490Z,21.65
2022-11-29T14:20:54.996Z,21.92
2022-11-29T14:25:08.175Z,22.48
2022-11-29T14:29:47.312Z,24.02
2022-11-29T14:33:58.407Z,21.13
2022-11-29T14:37:55.842Z,21.95
2022-11-29T14:46:16.065Z,17.58
2022-11-29T14:50:47.747Z,23.52
2022-11-29T14:55:24.488Z,22.33
2022-11-29T14:59:46.275Z,19.73
2022-11-29T15:03:49.794Z,21.60
2022-11-29T15:08:20.797Z,19.90
2022-11-29T15:12:18.752Z,19.63
2022-11-29T15:16:36.955Z,20.48
2022-11-29T15:20:48.461Z,18.52
2022-11-29T15:25:01.419Z,22.92
2022-11-29T15:28:53.932Z,28.30
2022-11-29T15:32:46.757Z,28.90
2022-11-29T15:36:43.572Z,29.00
2022-11-29T15:40:37.351Z,30.23
2022-11-29T15:44:32.984Z,39.28
2022-11-29T15:48:26.800Z,33.03
2022-11-29T15:52:30.831Z,30.90
2022-11-29T15:56:42.726Z,24.42
2022-11-29T16:00:35.808Z,25.63
2022-11-29T16:04:29.579Z,47.90
2022-11-29T16:08:22.784Z,32.78
2022-11-29T16:12:17.972Z,25.60
2022-11-29T16:16:20.946Z,28.75
2022-11-29T16:20:13.886Z,27.10
2022-11-29T16:24:23.488Z,27.10
2022-11-29T16:28:16.588Z,26.23
2022-11-29T16:32:36.965Z,25.77
2022-11-29T16:36:29.851Z,30.10
2022-11-29T16:40:27.170Z,30.92
2022-11-29T16:44:41.888Z,37.83
2022-11-29T16:48:38.939Z,37.20
2022-11-29T16:52:33.686Z,35.53
2022-11-29T16:56:29.233Z,35.83
2022-11-29T17:00:24.905Z,45.95
2022-11-29T17:04:23.815Z,52.33
2022-11-29T17:08:17.761Z,42.28
2022-11-29T17:12:13.926Z,31.15
2022-11-29T17:16:12.921Z,35.00
2022-11-29T17:20:07.511Z,32.85
2022-11-29T17:24:00.074Z,32.85
2022-11-29T17:27:52.409Z,30.17
2022-11-29T17:31:46.237Z,28.45
2022-11-29T17:35:39.002Z,27.75
2022-11-29T17:39:32.403Z,28.60
2022-11-29T17:43:25.481Z,29.25
2022-11-29T17:47:18.424Z,32.63
2022-11-29T17:51:36.047Z,38.50
2022-11-29T17:55:28.253Z,44.38
2022-11-29T17:59:22.759Z,54.00
2022-11-29T18:03:15.805Z,51.22
2022-11-29T18:07:08.859Z,44.90
2022-11-29T18:11:11.092Z,42.05
2022-11-29T18:15:04.152Z,39.03
2022-11-29T18:18:59.056Z,40.70
2022-11-29T18:22:53.852Z,36.38
2022-11-29T18:26:47.367Z,41.50
2022-11-29T18:30:40.612Z,39.97
2022-11-29T18:34:33.639Z,36.08
2022-11-29T18:38:26.864Z,38.92
2022-11-29T18:42:19.526Z,41.00
2022-11-29T18:46:15.863Z,58.42
2022-11-29T18:50:09.448Z,52.58
2022-11-29T18:54:06.464Z,45.47
2022-11-29T18:57:59.525Z,45.30
2022-11-29T19:01:53.771Z,43.25
2022-11-29T19:05:52.227Z,45.33
2022-11-29T19:09:46.598Z,43.45
2022-11-29T19:13:41.664Z,49.30
2022-11-29T19:17:38.804Z,49.35
2022-11-29T19:21:34.762Z,49.78
2022-11-29T19:25:28.263Z,51.80
2022-11-29T19:29:22.055Z,57.20
2022-11-29T19:33:15.187Z,56.47
2022-11-29T19:37:09.915Z,42.60
2022-11-29T19:41:10.360Z,41.85
2022-11-29T19:45:17.023Z,39.83
2022-11-29T19:49:12.768Z,39.63
2022-11-29T19:53:05.491Z,39.63
2022-11-29T19:56:58.824Z,42.65
2022-11-29T20:00:51.357Z,41.65
2022-11-29T20:04:47.034Z,46.60
2022-11-29T20:08:41.055Z,101.63
2022-11-29T20:12:34.927Z,50.45
2022-11-29T20:16:29.266Z,46.00
2022-11-29T20:20:22.203Z,42.22
2022-11-29T20:24:16.624Z,42.00
2022-11-29T20:28:12.699Z,55.95
2022-11-29T20:32:05.565Z,50.47
2022-11-29T20:36:12.112Z,47.92
2022-11-29T20:40:17.184Z,43.67
2022-11-29T20:44:13.771Z,41.92
2022-11-29T20:48:20.549Z,41.03
2022-11-29T20:52:51.128Z,40.85
2022-11-29T20:56:44.273Z,37.95
2022-11-29T21:00:37.506Z,37.42
2022-11-29T21:04:30.540Z,41.95
2022-11-29T21:08:26.032Z,37.53
2022-11-29T21:12:18.842Z,36.67
2022-11-29T21:16:12.612Z,42.85
2022-11-29T21:20:06.105Z,42.53
2022-11-29T21:24:09.193Z,43.72
2022-11-29T21:28:02.502Z,45.25
2022-11-29T21:31:55.417Z,37.53
2022-11-29T21:35:53.473Z,37.97
2022-11-29T21:39:47.828Z,37.42
2022-11-29T21:44:05.626Z,37.03
2022-11-29T21:47:53.680Z,37.63
2022-11-29T21:51:46.393Z,40.67
2022-11-29T21:55:38.766Z,42.03
2022-11-29T21:59:31.404Z,39.08
2022-11-29T22:03:24.040Z,35.28
2022-11-29T22:07:16.829Z,46.58
2022-11-29T22:11:15.422Z,45.13
2022-11-29T22:15:08.641Z,40.70
2022-11-29T22:19:01.284Z,40.22
2022-11-29T22:22:58.548Z,37.88
2022-11-29T22:26:52.745Z,38.63
2022-11-29T22:30:45.329Z,39.28
2022-11-29T22:34:37.977Z,35.20
2022-11-29T22:38:30.713Z,40.60
2022-11-29T22:42:23.214Z,35.70
2022-11-29T22:46:20.709Z,34.65
2022-11-29T22:54:08.029Z,36.75
2022-11-29T22:58:00.910Z,43.53
2022-11-29T23:01:53.951Z,45.45
2022-11-29T23:05:46.544Z,46.47
2022-11-29T23:09:39.342Z,46.50
2022-11-29T23:13:34.642Z,46.63
2022-11-29T23:17:27.455Z,50.17
2022-11-29T23:21:35.372Z,46.17
2022-11-29T23:25:27.848Z,44.75
2022-11-29T23:29:20.392Z,43.72
2022-11-29T23:33:13.009Z,37.15
2022-11-29T23:37:05.604Z,30.75
2022-11-29T23:40:58.309Z,30.88
2022-11-29T23:44:50.901Z,29.15
2022-11-29T23:48:44.180Z,27.88
2022-11-29T23:52:37.287Z,26.73
2022-11-29T23:56:35.434Z,30.70
